Time;durP1;ratioP1;P1;durP2;ratioP2;P2;SDS_P1;SDS_P2;PMS_P1;PMS_P2;Temp;Humidity;BMP_temperature;BMP_pressure;BME280_temperature;BME280_humidity;BME280_pressure;Samples;Min_cycle;Max_cycle;Signal;HPM_P1;HPM_P2
2022/04/07 00:00:53;;;;;;;16.35;14.70;;;8.60;99.90;;;;;;4791639;29;20706;-72
2022/04/07 00:03:20;;;;;;;16.08;14.88;;;8.60;99.90;;;;;;4777636;29;20067;-70
2022/04/07 00:05:47;;;;;;;18.08;16.27;;;8.70;99.90;;;;;;4775392;29;20051;-71
2022/04/07 00:08:14;;;;;;;16.42;14.98;;;8.70;99.90;;;;;;4760801;30;20051;-72
2022/04/07 00:10:41;;;;;;;15.80;14.30;;;8.70;99.90;;;;;;4765778;30;20130;-70
2022/04/07 00:13:08;;;;;;;21.25;16.25;;;8.80;99.90;;;;;;4775668;30;20047;-71
2022/04/07 00:15:34;;;;;;;16.52;15.13;;;8.80;99.90;;;;;;4775619;29;20805;-70
2022/04/07 00:18:02;;;;;;;15.85;14.32;;;8.80;99.90;;;;;;4788882;29;20107;-71
2022/04/07 00:20:29;;;;;;;15.45;14.02;;;8.80;99.90;;;;;;4775507;29;20139;-70
2022/04/07 00:22:57;;;;;;;15.93;14.63;;;8.80;99.90;;;;;;4776042;29;20227;-71
2022/04/07 00:25:25;;;;;;;16.58;14.98;;;8.90;99.90;;;;;;4781235;29;20079;-70
2022/04/07 00:27:52;;;;;;;16.17;14.88;;;8.90;99.90;;;;;;4772234;29;20051;-71
2022/04/07 00:30:21;;;;;;;13.75;12.50;;;8.90;99.90;;;;;;4774205;29;20058;-72
2022/04/07 00:33:05;;;;;;;11.98;11.18;;;8.90;99.90;;;;;;4800150;29;20902;-75
2022/04/07 00:35:32;;;;;;;12.93;11.88;;;8.90;99.90;;;;;;4778097;29;20054;-76
2022/04/07 00:37:59;;;;;;;12.63;11.57;;;8.90;99.90;;;;;;4779247;29;20118;-76
2022/04/07 00:40:26;;;;;;;15.13;12.60;;;8.80;99.90;;;;;;4778402;29;20598;-78
2022/04/07 00:42:53;;;;;;;10.63;9.73;;;8.70;99.90;;;;;;4781291;29;20047;-79
2022/04/07 00:45:22;;;;;;;10.73;9.63;;;8.70;99.90;;;;;;4780775;29;20059;-78
2022/04/07 00:47:50;;;;;;;12.48;9.82;;;8.60;99.90;;;;;;4778715;30;20415;-79
2022/04/07 00:50:18;;;;;;;13.40;9.52;;;8.60;99.90;;;;;;4782554;30;20059;-83
2022/04/07 00:52:56;;;;;;;13.20;9.52;;;8.50;99.90;;;;;;4786468;29;20059;-80
2022/04/07 00:55:25;;;;;;;11.80;9.40;;;8.50;99.90;;;;;;4786116;29;20055;-80
2022/04/07 00:57:52;;;;;;;9.27;7.35;;;8.50;99.90;;;;;;4811624;29;20050;-80
2022/04/07 01:00:19;;;;;;;11.90;8.10;;;8.50;99.90;;;;;;4818910;29;20072;-82
2022/04/07 01:02:46;;;;;;;7.63;6.93;;;8.40;99.90;;;;;;4790892;29;20051;-81
2022/04/07 01:05:23;;;;;;;7.85;7.15;;;8.60;99.90;;;;;;4768440;30;20074;-81
2022/04/07 01:07:49;;;;;;;10.70;6.20;;;8.50;99.90;;;;;;4767485;30;20084;-80
2022/04/07 01:10:19;;;;;;;8.35;5.90;;;8.30;99.90;;;;;;4784054;30;20855;-81
2022/04/07 01:12:46;;;;;;;6.50;5.88;;;8.20;99.90;;;;;;4767377;30;20043;-79
2022/04/07 01:15:12;;;;;;;8.38;6.20;;;8.20;99.90;;;;;;4784855;29;20056;-82
2022/04/07 01:17:39;;;;;;;7.72;5.97;;;8.10;99.90;;;;;;4789661;29;20059;-83
2022/04/07 01:20:07;;;;;;;8.43;5.82;;;8.10;99.90;;;;;;4786229;30;20051;-81
2022/04/07 01:22:36;;;;;;;12.18;6.50;;;8.10;99.90;;;;;;4785921;29;20067;-81
2022/04/07 01:25:03;;;;;;;7.82;6.38;;;8.00;99.90;;;;;;4771494;30;20112;-80
2022/04/07 01:27:30;;;;;;;9.10;6.30;;;8.00;99.90;;;;;;4779897;29;20591;-81
2022/04/07 01:30:01;;;;;;;9.15;5.82;;;8.00;99.90;;;;;;4785429;30;20119;-81
2022/04/07 01:32:59;;;;;;;7.47;5.72;;;7.90;99.90;;;;;;4756040;30;20761;-83
2022/04/07 01:35:27;;;;;;;6.28;4.00;;;7.90;99.90;;;;;;4756940;30;20055;-80
2022/04/07 01:37:57;;;;;;;6.13;3.97;;;7.80;99.90;;;;;;4772389;30;20063;-81
2022/04/07 01:40:29;;;;;;;6.88;4.90;;;7.80;99.90;;;;;;4788888;30;20124;-80
2022/04/07 01:42:57;;;;;;;5.93;4.60;;;7.80;99.90;;;;;;4777376;29;20048;-81
2022/04/07 01:45:25;;;;;;;6.20;4.28;;;7.60;99.90;;;;;;4798678;29;20783;-79
2022/04/07 01:47:54;;;;;;;5.78;4.40;;;7.60;99.90;;;;;;4793237;29;20142;-79
2022/04/07 01:50:24;;;;;;;9.57;6.10;;;7.60;99.90;;;;;;4771051;30;20140;-84
2022/04/07 01:52:52;;;;;;;5.82;4.20;;;7.50;99.90;;;;;;4786156;29;20090;-79
2022/04/07 01:55:20;;;;;;;7.70;5.30;;;7.40;99.90;;;;;;4774401;30;20047;-81
2022/04/07 01:57:48;;;;;;;9.02;4.90;;;7.40;99.90;;;;;;4784153;29;20116;-80
2022/04/07 02:00:15;;;;;;;7.57;4.80;;;7.30;99.90;;;;;;4799619;29;20141;-78
2022/04/07 02:02:45;;;;;;;5.22;4.18;;;7.30;99.90;;;;;;4793640;29;20122;-80
2022/04/07 02:05:13;;;;;;;8.60;4.97;;;7.20;99.90;;;;;;4772643;30;20055;-82
2022/04/07 02:07:42;;;;;;;7.88;5.28;;;7.20;99.90;;;;;;4772513;30;20074;-79
2022/04/07 02:10:11;;;;;;;6.80;4.90;;;7.20;99.90;;;;;;4770282;30;20051;-80
2022/04/07 02:12:41;;;;;;;9.38;5.57;;;7.10;99.90;;;;;;4770089;30;20051;-81
2022/04/07 02:15:09;;;;;;;9.45;5.35;;;7.10;99.90;;;;;;4789212;29;20062;-78
2022/04/07 02:17:36;;;;;;;7.82;5.68;;;7.20;99.90;;;;;;4784531;30;20120;-77
2022/04/07 02:20:06;;;;;;;7.35;4.95;;;7.20;99.90;;;;;;4767347;29;20489;-81
2022/04/07 02:22:32;;;;;;;7.93;5.90;;;7.20;99.90;;;;;;4768218;30;20051;-77
2022/04/07 02:24:59;;;;;;;7.70;4.95;;;7.20;99.90;;;;;;4766255;30;20059;-82
2022/04/07 02:27:34;;;;;;;6.50;4.97;;;7.20;99.90;;;;;;4772945;30;20047;-80
2022/04/07 02:30:01;;;;;;;7.80;5.28;;;7.20;99.90;;;;;;4768081;29;20051;-80
2022/04/07 02:32:28;;;;;;;7.95;4.13;;;7.30;99.90;;;;;;4778508;29;20146;-77
2022/04/07 02:34:56;;;;;;;6.05;3.85;;;7.40;99.90;;;;;;4764237;30;20094;-77
2022/04/07 02:37:25;;;;;;;5.38;4.40;;;7.50;99.90;;;;;;4780551;30;20675;-78
2022/04/07 02:39:53;;;;;;;5.53;5.00;;;7.70;99.90;;;;;;4780487;30;20083;-77
2022/04/07 02:42:20;;;;;;;5.32;4.88;;;7.90;99.90;;;;;;4761903;30;20058;-77
2022/04/07 02:44:47;;;;;;;6.18;5.75;;;8.10;99.90;;;;;;4776264;30;20388;-77
2022/04/07 02:47:13;;;;;;;8.85;5.95;;;8.10;99.90;;;;;;4778928;29;20047;-77
2022/04/07 02:49:41;;;;;;;7.45;6.72;;;8.10;99.90;;;;;;4762843;30;20055;-76
2022/04/07 02:52:09;;;;;;;7.88;7.00;;;8.20;99.90;;;;;;4778316;29;20059;-77
2022/04/07 02:54:37;;;;;;;7.13;6.47;;;8.10;99.90;;;;;;4762221;30;20059;-76
2022/04/07 02:57:04;;;;;;;8.15;6.63;;;8.10;99.90;;;;;;4766972;29;20412;-76
2022/04/07 02:59:34;;;;;;;8.20;6.38;;;8.20;99.90;;;;;;4785690;29;20151;-76
2022/04/07 03:02:01;;;;;;;7.47;6.90;;;8.20;99.90;;;;;;4777504;29;20588;-76
2022/04/07 03:04:28;;;;;;;9.07;7.40;;;8.20;99.90;;;;;;4780396;30;20048;-78
2022/04/07 03:06:55;;;;;;;8.65;7.85;;;8.30;99.90;;;;;;4777778;30;20079;-76
2022/04/07 03:09:22;;;;;;;8.23;7.53;;;8.20;99.90;;;;;;4778469;30;20054;-76
2022/04/07 03:11:49;;;;;;;8.20;7.57;;;8.30;99.90;;;;;;4761402;30;20112;-75
2022/04/07 03:14:16;;;;;;;8.43;7.63;;;8.30;99.90;;;;;;4770577;30;20055;-76
2022/04/07 03:16:48;;;;;;;8.40;7.70;;;8.20;99.90;;;;;;4766900;30;20086;-76
2022/04/07 03:19:16;;;;;;;10.95;7.70;;;8.30;99.90;;;;;;4776819;30;20062;-75
2022/04/07 03:21:43;;;;;;;8.68;8.00;;;8.30;99.90;;;;;;4777748;29;20498;-75
2022/04/07 03:24:11;;;;;;;8.50;7.80;;;8.40;99.90;;;;;;4777762;30;20063;-77
2022/04/07 03:26:58;;;;;;;7.85;7.43;;;8.40;99.90;;;;;;4768998;29;20053;-76
2022/04/07 03:29:26;;;;;;;8.65;7.88;;;8.40;99.90;;;;;;4789983;29;20075;-75
2022/04/07 03:31:53;;;;;;;8.88;8.27;;;8.40;99.90;;;;;;4777325;29;20638;-76
2022/04/07 03:34:20;;;;;;;8.88;8.20;;;8.50;99.90;;;;;;4762193;30;20090;-75
2022/04/07 03:36:47;;;;;;;8.65;8.05;;;8.50;99.90;;;;;;4761894;30;20081;-76
2022/04/07 03:39:13;;;;;;;9.05;8.35;;;8.50;99.90;;;;;;4778099;30;20562;-76
2022/04/07 03:41:40;;;;;;;8.90;8.20;;;8.60;99.90;;;;;;4774768;29;20511;-76
2022/04/07 03:44:09;;;;;;;8.13;7.63;;;8.60;99.90;;;;;;4767889;29;20055;-75
2022/04/07 03:46:39;;;;;;;9.05;8.30;;;8.50;99.90;;;;;;4781068;29;20125;-75
2022/04/07 03:49:07;;;;;;;7.85;7.30;;;8.50;99.90;;;;;;4787928;29;20058;-76
2022/04/07 03:51:34;;;;;;;7.38;6.65;;;8.50;99.90;;;;;;4775880;29;20563;-75
2022/04/07 03:54:01;;;;;;;7.38;6.70;;;8.40;99.90;;;;;;4762168;30;20103;-76
2022/04/07 03:56:28;;;;;;;7.07;6.57;;;8.40;99.90;;;;;;4757441;30;20090;-76
2022/04/07 03:58:55;;;;;;;6.63;5.80;;;8.40;99.90;;;;;;4781051;29;20055;-77
2022/04/07 04:01:22;;;;;;;7.15;6.38;;;8.30;99.90;;;;;;4778666;29;20620;-77
2022/04/07 04:03:49;;;;;;;6.13;5.00;;;8.30;99.90;;;;;;4786462;30;20035;-75
2022/04/07 04:06:16;;;;;;;6.47;5.68;;;8.30;99.90;;;;;;4795858;30;20071;-76
2022/04/07 04:08:42;;;;;;;8.50;5.60;;;8.30;99.90;;;;;;4796759;30;20085;-76
2022/04/07 04:11:09;;;;;;;6.60;5.50;;;8.30;99.90;;;;;;4777672;30;20290;-76
2022/04/07 04:13:36;;;;;;;6.43;5.85;;;8.30;99.90;;;;;;4791573;29;20081;-76
2022/04/07 04:16:03;;;;;;;7.00;6.50;;;8.30;99.90;;;;;;4777911;29;20112;-76
2022/04/07 04:18:30;;;;;;;6.60;6.00;;;8.30;99.90;;;;;;4777153;30;20146;-77
2022/04/07 04:20:57;;;;;;;7.88;7.00;;;8.30;99.90;;;;;;4785836;29;20070;-77
2022/04/07 04:23:24;;;;;;;6.72;6.20;;;8.30;99.90;;;;;;4777969;30;20039;-76
2022/04/07 04:25:50;;;;;;;7.30;6.80;;;8.40;99.90;;;;;;4775112;29;20428;-76
2022/04/07 04:28:17;;;;;;;7.40;6.82;;;8.40;99.90;;;;;;4784148;29;20055;-77
2022/04/07 04:30:44;;;;;;;8.55;7.38;;;8.40;99.90;;;;;;4768523;29;20129;-77
2022/04/07 04:33:11;;;;;;;7.15;6.65;;;8.40;99.90;;;;;;4778148;30;20063;-77
2022/04/07 04:35:37;;;;;;;7.75;6.90;;;8.40;99.90;;;;;;4762377;30;20479;-76
2022/04/07 04:38:04;;;;;;;6.72;6.18;;;8.30;99.90;;;;;;4777663;30;20500;-77
2022/04/07 04:40:31;;;;;;;7.38;6.75;;;8.40;99.90;;;;;;4777251;29;20132;-76
2022/04/07 04:42:59;;;;;;;7.20;6.72;;;8.40;99.90;;;;;;4778045;29;20430;-76
2022/04/07 04:45:26;;;;;;;7.50;6.97;;;8.40;99.90;;;;;;4777358;29;20050;-76
2022/04/07 04:47:53;;;;;;;6.95;6.45;;;8.40;99.90;;;;;;4777009;30;20074;-75
2022/04/07 04:50:20;;;;;;;7.00;6.57;;;8.30;99.90;;;;;;4777021;30;20510;-76
2022/04/07 04:52:47;;;;;;;6.40;6.07;;;8.40;99.90;;;;;;4776490;29;20108;-75
2022/04/07 04:55:14;;;;;;;7.05;6.60;;;8.40;99.90;;;;;;4777284;30;20199;-76
2022/04/07 04:57:41;;;;;;;6.40;6.00;;;8.40;99.90;;;;;;4771627;29;20376;-76
2022/04/07 05:00:08;;;;;;;8.43;7.72;;;8.40;99.90;;;;;;4790760;29;20187;-76
2022/04/07 05:02:34;;;;;;;7.45;6.90;;;8.40;99.90;;;;;;4778924;29;20078;-76
2022/04/07 05:05:01;;;;;;;8.52;7.72;;;8.40;99.90;;;;;;4776702;29;20059;-76
2022/04/07 05:07:29;;;;;;;7.95;7.28;;;8.40;99.90;;;;;;4779009;29;20086;-76
2022/04/07 05:09:56;;;;;;;7.95;7.47;;;8.40;99.90;;;;;;4794179;29;20047;-76
2022/04/07 05:12:23;;;;;;;9.15;8.25;;;8.40;99.90;;;;;;4775253;29;20075;-76
2022/04/07 05:14:50;;;;;;;9.05;8.25;;;8.50;99.90;;;;;;4785759;29;20060;-76
2022/04/07 05:17:20;;;;;;;11.52;10.82;;;8.50;99.90;;;;;;4767784;30;20047;-76
2022/04/07 05:19:47;;;;;;;11.55;10.73;;;8.60;99.90;;;;;;4777219;30;20769;-76
2022/04/07 05:22:14;;;;;;;12.18;11.07;;;8.50;99.90;;;;;;4760707;30;20059;-76
2022/04/07 05:24:40;;;;;;;12.15;11.27;;;8.50;99.90;;;;;;4760789;30;20159;-76
2022/04/07 05:27:08;;;;;;;13.18;12.18;;;8.50;99.90;;;;;;4780334;29;20480;-76
2022/04/07 05:29:34;;;;;;;12.55;11.85;;;8.50;99.90;;;;;;4765414;30;20502;-76
2022/04/07 05:32:01;;;;;;;12.68;11.88;;;8.50;99.90;;;;;;4775511;29;20127;-76
2022/04/07 05:34:30;;;;;;;12.90;11.77;;;8.60;99.90;;;;;;4788730;29;20146;-76
2022/04/07 05:36:56;;;;;;;13.50;12.35;;;8.60;99.90;;;;;;4760272;30;20217;-76
2022/04/07 05:39:23;;;;;;;13.05;12.15;;;8.70;99.90;;;;;;4776415;30;20166;-76
2022/04/07 05:41:50;;;;;;;14.10;13.10;;;8.70;99.90;;;;;;4774822;29;20059;-76
2022/04/07 05:44:17;;;;;;;14.32;13.48;;;8.70;99.90;;;;;;4776087;30;20112;-76
2022/04/07 05:46:44;;;;;;;13.10;12.23;;;8.70;99.90;;;;;;4776191;29;20044;-75
2022/04/07 05:49:11;;;;;;;13.30;12.45;;;8.80;99.90;;;;;;4777188;30;20075;-76
2022/04/07 05:51:38;;;;;;;13.07;12.40;;;8.80;99.90;;;;;;4775745;29;20047;-75
2022/04/07 05:54:05;;;;;;;14.63;13.63;;;8.80;99.90;;;;;;4759706;30;20059;-76
2022/04/07 05:56:32;;;;;;;13.20;12.18;;;8.90;99.90;;;;;;4781679;29;20058;-76
2022/04/07 05:58:59;;;;;;;12.75;12.15;;;8.90;99.90;;;;;;4764661;30;21056;-77
2022/04/07 06:01:30;;;;;;;13.13;12.30;;;8.90;99.90;;;;;;4775105;29;20084;-76
2022/04/07 06:03:57;;;;;;;13.25;12.52;;;8.90;99.90;;;;;;4778215;29;20625;-76
2022/04/07 06:06:25;;;;;;;12.38;11.77;;;9.00;99.90;;;;;;4780343;30;20598;-77
2022/04/07 06:08:51;;;;;;;11.45;10.82;;;9.10;99.90;;;;;;4764471;30;20055;-77
2022/04/07 06:11:18;;;;;;;11.80;11.20;;;9.10;99.90;;;;;;4762925;30;20047;-77
2022/04/07 06:13:45;;;;;;;11.77;11.27;;;9.10;99.90;;;;;;4780019;30;20553;-77
2022/04/07 06:16:12;;;;;;;11.40;10.90;;;9.20;99.90;;;;;;4778681;30;20051;-77
2022/04/07 06:18:38;;;;;;;11.52;11.02;;;9.20;99.90;;;;;;4763900;29;20142;-76
2022/04/07 06:21:05;;;;;;;12.70;12.10;;;9.20;99.90;;;;;;4779560;29;20059;-77
2022/04/07 06:23:32;;;;;;;12.15;11.65;;;9.30;99.90;;;;;;4779386;30;20047;-77
2022/04/07 06:25:59;;;;;;;12.65;11.95;;;9.40;99.90;;;;;;4777733;29;20507;-77
2022/04/07 06:28:26;;;;;;;13.00;12.30;;;9.40;99.90;;;;;;4780325;30;20151;-75
2022/04/07 06:30:54;;;;;;;12.05;11.52;;;9.40;99.90;;;;;;4778681;29;20044;-77
2022/04/07 06:36:16;;;;;;;12.35;11.82;;;9.40;99.90;;;;;;4800969;29;20054;-71
2022/04/07 06:38:43;;;;;;;13.10;12.50;;;9.50;99.90;;;;;;4809943;29;20658;-70
2022/04/07 06:41:10;;;;;;;13.60;12.90;;;9.50;99.90;;;;;;4789602;29;20058;-70
2022/04/07 06:43:37;;;;;;;13.95;13.15;;;9.60;99.90;;;;;;4754440;29;20152;-69
2022/04/07 06:46:03;;;;;;;15.70;14.88;;;9.60;99.90;;;;;;4768366;29;20570;-70
2022/04/07 06:48:30;;;;;;;13.52;12.93;;;9.60;99.90;;;;;;4790947;29;20885;-70
2022/04/07 06:50:57;;;;;;;14.02;13.30;;;9.70;99.90;;;;;;4761384;29;20047;-71
2022/04/07 06:53:23;;;;;;;13.73;13.07;;;9.80;99.90;;;;;;4777662;29;20893;-71
2022/04/07 06:55:50;;;;;;;13.60;13.00;;;9.80;99.90;;;;;;4790371;29;20062;-73
2022/04/07 06:58:17;;;;;;;13.65;13.05;;;9.80;99.90;;;;;;4769023;29;20111;-73
2022/04/07 07:00:45;;;;;;;14.27;13.55;;;9.80;99.90;;;;;;4808011;29;20086;-73
2022/04/07 07:03:14;;;;;;;13.77;13.18;;;9.80;99.90;;;;;;4762544;30;20070;-73
2022/04/07 07:05:42;;;;;;;14.02;13.32;;;9.80;99.90;;;;;;4791097;29;20052;-72
2022/04/07 07:08:22;;;;;;;13.85;13.35;;;9.80;99.90;;;;;;4762476;30;20047;-74
2022/04/07 07:10:50;;;;;;;14.10;13.52;;;9.90;99.90;;;;;;4775607;29;20735;-73
2022/04/07 07:13:20;;;;;;;13.40;12.85;;;9.90;99.90;;;;;;4779834;29;20055;-72
2022/04/07 07:15:53;;;;;;;13.73;13.13;;;9.90;99.90;;;;;;4770040;29;20059;-73
2022/04/07 07:18:20;;;;;;;13.82;13.13;;;9.90;99.90;;;;;;4762044;30;20066;-74
2022/04/07 07:20:47;;;;;;;14.10;13.30;;;9.90;99.90;;;;;;4777302;29;20088;-73
2022/04/07 07:23:15;;;;;;;13.60;13.00;;;9.90;99.90;;;;;;4790592;29;20425;-73
2022/04/07 07:25:42;;;;;;;13.52;13.02;;;9.80;99.90;;;;;;4796125;29;20047;-73
2022/04/07 07:28:09;;;;;;;14.13;13.52;;;9.80;99.90;;;;;;4769715;29;20115;-73
2022/04/07 07:30:36;;;;;;;14.23;13.43;;;9.80;99.90;;;;;;4761383;30;20325;-73
2022/04/07 07:33:03;;;;;;;15.13;14.43;;;9.80;99.90;;;;;;4785699;29;20121;-74
2022/04/07 07:35:30;;;;;;;14.57;13.98;;;9.90;99.90;;;;;;4779179;29;21325;-74
2022/04/07 07:37:58;;;;;;;15.77;14.85;;;9.90;99.90;;;;;;4779621;29;20050;-71
2022/04/07 07:40:28;;;;;;;14.85;14.18;;;10.00;99.90;;;;;;4770584;29;20108;-72
2022/04/07 07:42:56;;;;;;;15.88;14.80;;;9.90;99.90;;;;;;4776062;30;20063;-73
2022/04/07 07:45:24;;;;;;;15.40;14.63;;;9.90;99.90;;;;;;4777219;29;20044;-73
2022/04/07 07:48:12;;;;;;;14.60;14.00;;;9.90;99.90;;;;;;4761409;30;20547;-72
2022/04/07 07:50:45;;;;;;;15.07;14.38;;;9.90;99.90;;;;;;4767471;29;20062;-72
2022/04/07 07:53:17;;;;;;;15.65;15.05;;;9.90;99.90;;;;;;4779710;29;20134;-73
2022/04/07 07:55:43;;;;;;;14.77;14.18;;;10.00;99.90;;;;;;4778182;29;20090;-73
2022/04/07 07:58:10;;;;;;;14.63;14.02;;;9.90;99.90;;;;;;4786665;29;20115;-72
2022/04/07 08:00:38;;;;;;;14.02;13.43;;;9.90;99.90;;;;;;4787893;29;20055;-74
2022/04/07 08:03:05;;;;;;;12.93;12.35;;;9.80;99.90;;;;;;4761269;30;20058;-73
2022/04/07 08:05:31;;;;;;;13.05;12.52;;;9.70;99.90;;;;;;4789741;29;20054;-73
2022/04/07 08:07:58;;;;;;;12.55;12.05;;;9.60;99.90;;;;;;4761087;30;20511;-72
2022/04/07 08:10:25;;;;;;;13.00;12.50;;;9.70;99.90;;;;;;4775476;29;20080;-73
2022/04/07 08:12:52;;;;;;;14.02;13.45;;;9.80;99.90;;;;;;4777481;29;20172;-73
2022/04/07 08:15:19;;;;;;;14.50;13.80;;;9.80;99.90;;;;;;4767347;29;20778;-74
2022/04/07 08:17:46;;;;;;;13.55;13.05;;;9.80;99.90;;;;;;4790040;29;20055;-74
2022/04/07 08:20:13;;;;;;;12.77;12.27;;;9.80;99.90;;;;;;4787582;29;20546;-72
2022/04/07 08:22:40;;;;;;;12.18;11.70;;;9.80;99.90;;;;;;4779327;29;20047;-73
2022/04/07 08:25:08;;;;;;;13.25;12.65;;;9.80;99.90;;;;;;4778080;29;20055;-73
2022/04/07 08:27:35;;;;;;;12.85;12.35;;;9.80;99.90;;;;;;4798014;29;20101;-73
2022/04/07 08:30:03;;;;;;;12.70;12.00;;;9.80;99.90;;;;;;4787343;29;20051;-72
2022/04/07 08:32:33;;;;;;;12.90;12.40;;;9.80;99.90;;;;;;4761021;30;20094;-73
2022/04/07 08:35:01;;;;;;;13.98;13.38;;;9.80;99.90;;;;;;4760621;30;20705;-73
2022/04/07 08:37:27;;;;;;;13.30;12.80;;;9.80;99.90;;;;;;4760355;30;20063;-73
2022/04/07 08:39:54;;;;;;;13.00;12.48;;;9.80;99.90;;;;;;4764105;29;20047;-72
2022/04/07 08:42:26;;;;;;;13.23;12.73;;;9.90;99.90;;;;;;4775158;29;20073;-74
2022/04/07 08:44:54;;;;;;;12.85;12.35;;;9.80;99.90;;;;;;4787347;29;20445;-74
2022/04/07 08:47:21;;;;;;;12.20;11.70;;;9.80;99.90;;;;;;4790220;29;20085;-73
2022/04/07 08:49:49;;;;;;;12.27;11.77;;;9.70;99.90;;;;;;4758685;29;20779;-73
2022/04/07 08:52:17;;;;;;;11.43;10.93;;;9.70;99.90;;;;;;4775920;29;20475;-74
2022/04/07 08:54:47;;;;;;;11.55;11.05;;;9.70;99.90;;;;;;4791289;29;20051;-74
2022/04/07 08:57:15;;;;;;;10.50;10.10;;;9.60;99.90;;;;;;4781401;29;20054;-74
2022/04/07 08:59:42;;;;;;;10.07;9.68;;;9.60;99.90;;;;;;4802569;29;20166;-74
2022/04/07 09:02:12;;;;;;;10.05;9.65;;;9.60;99.90;;;;;;4790604;29;20059;-74
2022/04/07 09:04:40;;;;;;;10.40;10.00;;;9.70;99.90;;;;;;4773482;30;20063;-75
2022/04/07 09:07:11;;;;;;;10.80;10.40;;;9.70;99.90;;;;;;4758835;30;20248;-73
2022/04/07 09:09:37;;;;;;;10.43;9.93;;;9.70;99.90;;;;;;4775367;30;20055;-73
2022/04/07 09:12:05;;;;;;;9.95;9.55;;;9.70;99.90;;;;;;4769056;29;20725;-74
2022/04/07 09:14:33;;;;;;;10.38;9.77;;;9.70;99.90;;;;;;4774762;29;20101;-74
2022/04/07 09:17:00;;;;;;;10.15;9.75;;;9.80;99.90;;;;;;4770825;29;20047;-75
2022/04/07 09:19:30;;;;;;;9.50;9.20;;;9.70;99.90;;;;;;4771368;30;20071;-74
2022/04/07 09:22:12;;;;;;;7.80;7.50;;;9.60;99.90;;;;;;4764507;29;20067;-74
2022/04/07 09:24:41;;;;;;;7.93;7.63;;;9.50;99.90;;;;;;4760598;29;20592;-73
2022/04/07 09:27:12;;;;;;;7.80;7.50;;;9.60;99.90;;;;;;4784056;29;20079;-74
2022/04/07 09:29:40;;;;;;;7.65;7.13;;;9.70;99.90;;;;;;4761796;30;20128;-74
2022/04/07 09:32:20;;;;;;;9.00;8.70;;;9.80;99.90;;;;;;4787690;29;20059;-73
2022/04/07 09:35:00;;;;;;;8.57;8.13;;;9.90;99.90;;;;;;4724598;30;1049350;-75
2022/04/07 09:37:29;;;;;;;8.35;8.05;;;10.00;99.90;;;;;;4774163;29;20056;-73
2022/04/07 09:40:06;;;;;;;9.40;8.65;;;10.00;99.90;;;;;;4791544;29;20070;-74
2022/04/07 09:42:34;;;;;;;8.57;8.27;;;10.00;99.90;;;;;;4790940;29;20750;-74
2022/04/07 09:45:02;;;;;;;11.00;10.40;;;10.10;99.90;;;;;;4779200;30;20051;-74
2022/04/07 09:47:36;;;;;;;11.27;10.73;;;10.20;99.90;;;;;;4779019;29;20074;-73
2022/04/07 09:50:05;;;;;;;10.13;9.80;;;10.20;99.90;;;;;;4778750;29;20055;-74
2022/04/07 09:52:32;;;;;;;9.60;9.10;;;10.10;99.90;;;;;;4769268;29;20512;-74
2022/04/07 09:55:08;;;;;;;7.97;7.68;;;10.10;99.90;;;;;;4765589;29;20066;-73
2022/04/07 09:57:36;;;;;;;6.00;5.80;;;10.00;99.90;;;;;;4783775;29;20556;-74
2022/04/07 10:00:04;;;;;;;5.60;5.40;;;9.80;99.90;;;;;;4778585;29;20059;-73
2022/04/07 10:02:32;;;;;;;6.10;5.90;;;9.80;99.90;;;;;;4796077;29;20086;-74
2022/04/07 10:05:01;;;;;;;5.80;5.60;;;9.80;99.90;;;;;;4780382;29;20043;-75
2022/04/07 10:07:28;;;;;;;5.78;5.47;;;9.90;99.90;;;;;;4796472;29;20051;-73
2022/04/07 10:09:55;;;;;;;6.60;6.20;;;10.00;99.90;;;;;;4796992;29;20123;-73
2022/04/07 10:12:24;;;;;;;6.88;6.60;;;10.10;99.90;;;;;;4778234;29;20046;-74
2022/04/07 10:14:51;;;;;;;6.88;6.68;;;10.10;99.90;;;;;;4774561;29;20725;-73
2022/04/07 10:17:18;;;;;;;6.30;6.00;;;10.20;99.90;;;;;;4762211;30;20053;-73
2022/04/07 10:19:50;;;;;;;6.90;6.60;;;10.20;99.90;;;;;;4762904;30;20120;-72
2022/04/07 10:22:37;;;;;;;7.47;7.18;;;10.20;99.90;;;;;;4762089;30;20084;-74
2022/04/07 10:25:05;;;;;;;8.05;7.65;;;10.20;99.90;;;;;;4779897;29;20059;-74
2022/04/07 10:27:45;;;;;;;8.38;8.07;;;10.30;99.90;;;;;;4766415;29;20128;-74
2022/04/07 10:30:14;;;;;;;8.10;7.70;;;10.40;99.90;;;;;;4788946;29;20075;-75
2022/04/07 10:32:46;;;;;;;7.65;7.20;;;10.40;99.90;;;;;;4777039;29;20357;-73
2022/04/07 10:35:37;;;;;;;6.78;6.43;;;10.40;99.90;;;;;;4779435;29;20115;-75
2022/04/07 10:38:09;;;;;;;6.28;5.78;;;10.30;99.90;;;;;;4796624;29;20054;-75
2022/04/07 10:40:40;;;;;;;4.03;3.83;;;10.20;99.90;;;;;;4776448;29;20063;-74
2022/04/07 10:43:14;;;;;;;3.47;3.38;;;10.10;99.90;;;;;;4749082;30;20056;-76
2022/04/07 10:45:43;;;;;;;4.75;2.40;;;10.00;99.90;;;;;;4777368;29;20054;-74
2022/04/07 10:48:25;;;;;;;1.60;1.27;;;9.90;99.90;;;;;;4777102;30;20059;-74
2022/04/07 10:51:00;;;;;;;3.17;1.80;;;9.50;99.90;;;;;;4763003;29;20055;-75
2022/04/07 10:53:32;;;;;;;2.22;1.55;;;7.80;99.90;;;;;;4779849;29;20066;-75
2022/04/07 10:56:00;;;;;;;6.10;2.47;;;7.00;99.90;;;;;;4775615;29;20112;-77
2022/04/07 10:58:57;;;;;;;3.30;1.30;;;6.90;99.90;;;;;;4787173;29;20059;-77
2022/04/07 11:01:32;;;;;;;4.07;2.70;;;6.90;99.90;;;;;;4784241;29;20290;-77
2022/04/07 11:04:18;;;;;;;3.55;2.08;;;6.80;99.90;;;;;;4792082;29;20092;-76
2022/04/07 11:07:19;;;;;;;4.93;2.17;;;6.80;99.90;;;;;;4777062;29;20640;-77
2022/04/07 11:09:49;;;;;;;2.60;1.83;;;6.70;99.90;;;;;;4790758;29;20106;-76
2022/04/07 11:12:25;;;;;;;6.30;2.80;;;6.70;99.90;;;;;;4785629;29;20063;-77
2022/04/07 11:15:11;;;;;;;7.28;2.83;;;6.70;99.90;;;;;;4776841;30;20061;-75
2022/04/07 11:17:48;;;;;;;6.90;4.50;;;6.70;99.90;;;;;;4746603;30;20093;-75
2022/04/07 11:20:22;;;;;;;5.70;3.50;;;6.80;99.90;;;;;;4760334;29;20083;-75
2022/04/07 11:22:56;;;;;;;2.25;1.70;;;6.80;99.90;;;;;;4769850;29;20139;-74
2022/04/07 11:25:39;;;;;;;7.10;2.95;;;6.80;99.90;;;;;;4771882;29;20059;-76
2022/04/07 11:28:17;;;;;;;4.35;2.38;;;6.80;99.90;;;;;;4771773;29;20648;-76
2022/04/07 11:30:52;;;;;;;3.20;2.90;;;6.80;99.90;;;;;;4774570;29;20553;-74
2022/04/07 11:33:19;;;;;;;3.90;3.05;;;6.80;99.90;;;;;;4794168;29;20067;-75
2022/04/07 11:36:04;;;;;;;3.83;3.22;;;6.80;99.90;;;;;;4789673;29;20162;-77
2022/04/07 11:38:34;;;;;;;5.28;4.13;;;6.80;99.90;;;;;;4792250;29;20062;-75
2022/04/07 11:41:02;;;;;;;3.30;2.95;;;6.90;99.90;;;;;;4789449;29;20356;-76
2022/04/07 11:43:30;;;;;;;3.42;3.05;;;6.90;99.90;;;;;;4777423;29;20117;-74
2022/04/07 11:45:57;;;;;;;5.72;3.67;;;7.00;99.90;;;;;;4764555;29;20495;-75
2022/04/07 11:48:44;;;;;;;6.25;3.47;;;7.00;99.90;;;;;;4778043;29;20047;-76
2022/04/07 11:51:14;;;;;;;5.20;4.70;;;7.10;99.90;;;;;;4775889;29;20078;-76
2022/04/07 11:53:54;;;;;;;5.07;4.57;;;7.10;99.90;;;;;;4759614;29;20094;-74
2022/04/07 11:56:26;;;;;;;4.55;4.00;;;7.30;99.90;;;;;;4784272;29;20066;-75
2022/04/07 11:58:56;;;;;;;4.15;3.75;;;7.30;99.90;;;;;;4800302;29;20054;-74
2022/04/07 12:01:24;;;;;;;6.30;4.63;;;7.40;99.90;;;;;;4777656;29;20063;-75
2022/04/07 12:03:52;;;;;;;3.80;3.20;;;7.50;99.90;;;;;;4777460;29;20085;-76
2022/04/07 12:06:29;;;;;;;6.95;4.75;;;7.50;99.90;;;;;;4777700;29;20046;-75
2022/04/07 12:08:57;;;;;;;8.07;5.53;;;7.70;99.90;;;;;;4777886;29;20070;-75
2022/04/07 12:11:26;;;;;;;6.43;4.65;;;8.00;99.90;;;;;;4777724;29;20194;-74
2022/04/07 12:13:55;;;;;;;4.85;3.80;;;8.10;99.90;;;;;;4769957;29;20059;-74
2022/04/07 12:16:22;;;;;;;5.53;4.40;;;8.20;99.90;;;;;;4770276;29;20567;-74
2022/04/07 12:18:57;;;;;;;4.95;4.45;;;8.20;99.90;;;;;;4779303;29;20051;-75
2022/04/07 12:21:25;;;;;;;18.08;8.75;;;8.40;99.90;;;;;;4760145;29;20147;-73
2022/04/07 12:24:11;;;;;;;9.77;7.53;;;8.50;99.90;;;;;;4760531;30;20151;-75
2022/04/07 12:26:49;;;;;;;9.98;8.27;;;8.90;99.90;;;;;;4783822;29;20150;-74
2022/04/07 12:29:31;;;;;;;7.30;6.60;;;9.10;99.90;;;;;;4766183;29;20875;-74
2022/04/07 12:34:51;;;;;;;14.35;11.00;;;8.90;99.90;;;;;;4786098;29;20058;-78
2022/04/07 12:37:30;;;;;;;12.82;11.52;;;8.90;99.90;;;;;;4760324;29;20087;-77
2022/04/07 12:39:57;;;;;;;12.20;9.82;;;8.90;99.90;;;;;;4769461;30;20094;-79
2022/04/07 12:42:24;;;;;;;10.60;9.48;;;9.10;99.90;;;;;;4773884;30;20051;-80
2022/04/07 12:45:04;;;;;;;10.13;9.32;;;9.10;99.90;;;;;;4757109;29;20535;-79
2022/04/07 12:47:30;;;;;;;9.75;8.95;;;9.30;99.90;;;;;;4772468;29;20333;-78
2022/04/07 12:50:01;;;;;;;9.68;8.77;;;9.60;99.90;;;;;;4778477;29;20481;-79
2022/04/07 12:52:39;;;;;;;11.95;10.25;;;9.90;99.90;;;;;;4747768;30;20631;-78
2022/04/07 12:55:10;;;;;;;12.27;11.55;;;10.00;99.90;;;;;;4760469;30;20128;-78
2022/04/07 12:57:42;;;;;;;14.57;13.77;;;10.10;99.90;;;;;;4766497;29;20066;-77
2022/04/07 13:00:30;;;;;;;15.40;14.40;;;10.10;99.90;;;;;;4769000;29;20082;-77
2022/04/07 13:03:01;;;;;;;17.40;16.00;;;10.00;99.90;;;;;;4766963;30;20059;-76
2022/04/07 13:05:30;;;;;;;16.42;15.57;;;9.80;99.90;;;;;;4753966;29;20081;-77